• Join FlightAware (Why Join?)
  • Login
  • US Flag 
12:48PM EDT


 

Airport Tracker/Info


-or-


 

Live Flight TrackerFlight Track Log ✈ OPT429 ✈ 27-Jul-2014 ✈ KDTS - KAVL

Flight Track Log - Related Links

Times and Time Zones

All times are in EDT time to prevent confusion due to time zone crossing. See the OPT429 flight status page for this flight to view local times or setup timezone preferences in your user account.

Time Position Orientation Groundspeed Altitude Reporting Facility
EDT Latitude Longitude Course Direction KTS MPH feet Rate Location/Type
03:57PM 30.5075 -86.4367 342° North 205 236 5,500  Level Jacksonville Center
03:58PM 30.5633 -86.4483 350° North 212 244 8,400 2,580 Climbing Jacksonville Center
03:59PM 30.6236 -86.4653 346° North 212 244 10,700 2,400 Climbing Jacksonville Center
04:00PM 30.6919 -86.4822 348° North 228 262 13,300 2,040 Climbing Jacksonville Center
04:01PM 30.4091 -86.4750 342° North  Level FlightAware Approximate
04:01PM 30.7614 -86.4606 15° North 243 280 14,800  Level Jacksonville Center
04:02PM 30.8400 -86.4153 26° Northeast 279 321 16,200 1,500 Climbing Jacksonville Center
04:03PM 30.9289 -86.3678 25° Northeast 302 348 17,800 1,500 Climbing Jacksonville Center
04:04PM 31.0158 -86.3225 24° Northeast 327 376 19,300 1,500 Climbing Jacksonville Center
04:05PM 31.1089 -86.2772 23° Northeast 344 396 20,800 1,500 Climbing Jacksonville Center
04:06PM 31.2000 -86.2272 25° Northeast 349 402 22,300 1,440 Climbing Jacksonville Center
04:07PM 31.2931 -86.1769 25° Northeast 349 402 23,700 1,320 Climbing Jacksonville Center
04:09PM 31.4436 -86.0908 26° Northeast 369 425 26,000 1,260 Climbing Atlanta Center
04:10PM 31.5383 -86.0417 24° Northeast 369 425 27,300 1,200 Climbing Atlanta Center
04:11PM 31.6331 -85.9878 26° Northeast 369 425 28,400 1,260 Climbing Atlanta Center
04:12PM 31.7319 -85.9361 24° Northeast 369 425 29,900 1,440 Climbing Atlanta Center
04:13PM 31.8267 -85.8867 24° Northeast 369 425 31,300 1,260 Climbing Atlanta Center
04:14PM 31.9214 -85.8350 25° Northeast 369 425 32,500 1,200 Climbing Atlanta Center
04:15PM 32.0183 -85.7806 25° Northeast 374 430 33,800 1,140 Climbing Atlanta Center
04:16PM 32.1172 -85.7211 27° Northeast 379 436 34,800 600 Climbing Atlanta Center
04:17PM 32.2181 -85.6667 25° Northeast 385 443 35,000 60 Climbing Atlanta Center
04:18PM 32.3147 -85.6142 25° Northeast 405 466 35,000  Level Atlanta Center
04:19PM 32.4367 -85.5450 26° Northeast 410 472 35,000  Level Atlanta Center
04:20PM 32.5417 -85.4903 24° Northeast 404 465 35,000  Level Atlanta Center
04:21PM 32.6467 -85.4303 26° Northeast 404 465 35,000  Level Atlanta Center
04:22PM 32.7539 -85.3725 24° Northeast 404 465 35,000  Level Atlanta Center
04:23PM 32.8589 -85.3122 26° Northeast 404 465 35,000  Level Atlanta Center
04:24PM 32.9639 -85.2544 25° Northeast 404 465 35,000  Level Atlanta Center
04:25PM 33.0625 -85.1939 27° Northeast 399 459 35,000  Level Atlanta Center
04:26PM 33.1428 -85.0883 48° Northeast 404 465 35,000  Level Atlanta Center
04:27PM 33.2208 -84.9850 48° Northeast 404 465 35,000  Level Atlanta Center
04:28PM 33.2989 -84.8789 49° Northeast 421 484 35,000 -600 Level Atlanta Center
04:29PM 33.3703 -84.7800 49° Northeast 427 491 33,900 -1,200 Descending Atlanta Center
04:30PM 33.4483 -84.6761 48° Northeast 427 491 32,700 -1,200 Descending Atlanta Center
04:31PM 33.5281 -84.5697 48° Northeast 427 491 31,500 -1,260 Descending Atlanta Center
04:32PM 33.6142 -84.4503 49° Northeast 427 491 30,200 -1,320 Descending Atlanta Center
04:33PM 33.7061 -84.3508 42° Northeast 427 491 28,900 -1,320 Descending Atlanta Center
04:34PM 33.8150 -84.2714 31° Northeast 441 507 27,600 -960 Descending Atlanta Center
04:35PM 33.9236 -84.2042 27° Northeast 441 507 27,000 -300 Descending Atlanta Center
04:36PM 34.0300 -84.1392 27° Northeast 449 517 27,000  Level Atlanta Center
04:37PM 34.1386 -84.0664 29° Northeast 449 517 27,000  Level Atlanta Center
04:38PM 34.2306 -83.9658 42° Northeast 449 517 27,000  Level Atlanta Center
04:39PM 34.3200 -83.8553 46° Northeast 444 511 27,000  Level Atlanta Center
04:40PM 34.4117 -83.7492 44° Northeast 444 511 27,000 -480 Level Atlanta Center
04:41PM 34.5033 -83.6456 43° Northeast 444 511 26,100 -1,080 Descending Atlanta Center
04:42PM 34.5989 -83.5342 44° Northeast 454 522 24,900 -1,740 Descending Atlanta Center
04:43PM 34.6964 -83.4222 43° Northeast 449 517 22,700 -2,160 Descending Atlanta Center
04:44PM 34.7856 -83.3156 44° Northeast 444 511 20,600 -1,980 Descending Atlanta Center
04:45PM 34.8622 -83.2211 45° Northeast 439 505 18,800 -2,040 Descending Atlanta Center
04:46PM 34.9533 -83.1189 43° Northeast 419 482 16,600 -2,160 Descending Atlanta Center
04:47PM 35.0319 -83.0267 44° Northeast 403 464 14,500 -2,100 Descending Atlanta Center
04:48PM 35.1061 -82.9344 45° Northeast 389 448 12,500 -2,040 Descending Atlanta Center
04:49PM 35.1825 -82.8469 43° Northeast 377 434 10,500 -1,800 Descending Atlanta Center
04:50PM 35.2422 -82.7750 45° Northeast 339 390 9,000 -1,200 Descending Atlanta Center
04:51PM 35.3022 -82.7053 43° Northeast 309 356 8,100 -480 Descending Atlanta Center
04:52PM 35.3728 -82.6711 22° Northeast 269 310 8,100  Level Atlanta Center
04:53PM 35.4458 -82.6747 358° North 261 300 8,100  Level Atlanta Center
04:54PM 35.5167 -82.6711 North 248 285 8,100 -480 Level Atlanta Center
04:55PM 35.5731 -82.6931 342° North 230 265 7,200 -900 Descending Atlanta Center
04:57PM 35.4333 -82.5333 137° Southeast  Level FlightAware Approximate
05:04PM 35.4362 -82.5418 137° Southeast  Level Estimated
05:05PM 35.4362 -82.5418 319° Northwest  Level Estimated